»·PEaware :: N6507W KSBP-KSZP

N6507W :: KSBP-KSZP

FLIGHT INFORMATION

Flight Status: Arrived
Operator: Privately registered:
United States
More flights under this callsign
Pilot: Jukka N. (18040)
Aircraft: CESSNA 172 SKYHAWK
(C172)
More flights by this aircraft type
Origin: KSBP San Luis Co Regl
United States
Destination: KSZP Santa Paula
United States
More flights between these airports :: More routes between these airports
Route:
File this flight plan on PilotEdge
Remarks:
Altitude:
(Current/Filed)
7,500ft
Speed:
(Current/Filed)
120kts
Departed: 10-Mar-19 01:26 PM
Arrived: 10-Mar-19 02:27 PM
Distance/Time
Traveled:
94nm/1:01
Distance/Time
To Go:
Arrived

Flight Plot

Page will automatically refresh every two minutes.

Flight plan parsing failed; only flown route is shown


Map Options




Map Legend


Flown Route
Filed Route
Departure Airport
Arrival Airport
Navaid (VOR, NDB)
Fix

Horizontal Profiles

Position Reports

Time Latitude Longitude Heading Altitude Ground
Speed
10-Mar-19 13:05 35.238783 -120.647587 351 215ft 0kts
10-Mar-19 13:06 35.238783 -120.647587 351 215ft 0kts
10-Mar-19 13:07 35.238783 -120.647587 351 215ft 0kts
10-Mar-19 13:08 35.238783 -120.647587 351 215ft 0kts
10-Mar-19 13:09 35.238783 -120.647587 351 215ft 0kts
10-Mar-19 13:10 35.238783 -120.647587 351 215ft 0kts
10-Mar-19 13:11 35.238783 -120.647587 351 215ft 0kts
10-Mar-19 13:12 35.238783 -120.647587 351 215ft 0kts
10-Mar-19 13:13 35.238783 -120.647587 351 215ft 0kts
10-Mar-19 13:14 35.238783 -120.647587 351 215ft 0kts
10-Mar-19 13:15 35.238783 -120.647587 351 215ft 0kts
10-Mar-19 13:16 35.238783 -120.647587 351 215ft 0kts
10-Mar-19 13:17 35.238783 -120.647587 352 215ft 0kts
10-Mar-19 13:18 35.238783 -120.647587 352 215ft 0kts
10-Mar-19 13:19 35.238783 -120.647587 351 215ft 0kts
10-Mar-19 13:20 35.238783 -120.647587 352 215ft 0kts
10-Mar-19 13:21 35.237726 -120.643073 86 215ft 0kts
10-Mar-19 13:22 35.237467 -120.639347 124 215ft 21kts
10-Mar-19 13:23 35.233319 -120.632286 181 215ft 9kts
10-Mar-19 13:24 35.233145 -120.632370 217 215ft 0kts
10-Mar-19 13:25 35.243358 -120.651693 302 651ft 95kts
10-Mar-19 13:26 35.261855 -120.668252 0 1742ft 84kts
10-Mar-19 13:27 35.281938 -120.662863 19 2677ft 85kts
10-Mar-19 13:28 35.308757 -120.655148 12 3256ft 101kts
10-Mar-19 13:29 35.329734 -120.638393 93 4003ft 103kts
10-Mar-19 13:30 35.322446 -120.605538 101 4793ft 97kts
10-Mar-19 13:31 35.315415 -120.575551 101 5576ft 88kts
10-Mar-19 13:32 35.306058 -120.550469 150 6344ft 79kts
10-Mar-19 13:33 35.286817 -120.538485 152 6942ft 82kts
10-Mar-19 13:34 35.264622 -120.524896 153 7458ft 97kts
10-Mar-19 13:35 35.237933 -120.508775 153 7927ft 102kts
10-Mar-19 13:36 35.213389 -120.493905 153 8559ft 97kts
10-Mar-19 13:37 35.189096 -120.479185 153 9163ft 97kts
10-Mar-19 13:38 35.165270 -120.464744 153 9758ft 92kts
10-Mar-19 13:39 35.136700 -120.447330 152 9602ft 136kts
10-Mar-19 13:40 35.111703 -120.414661 124 9294ft 137kts
10-Mar-19 13:41 35.088693 -120.373789 123 8319ft 150kts
10-Mar-19 13:42 35.066233 -120.333380 123 7360ft 148kts
10-Mar-19 13:43 35.043195 -120.291926 123 6358ft 146kts
10-Mar-19 13:44 35.020768 -120.251633 123 5502ft 134kts
10-Mar-19 13:45 35.001485 -120.217010 123 5138ft 121kts
10-Mar-19 13:46 34.984615 -120.186733 121 5208ft 92kts
10-Mar-19 13:47 34.969367 -120.159200 122 5499ft 112kts
10-Mar-19 13:48 34.950167 -120.124872 122 5492ft 126kts
10-Mar-19 13:49 34.930046 -120.088921 122 5491ft 128kts
10-Mar-19 13:50 34.909769 -120.052712 122 5491ft 129kts
10-Mar-19 13:51 34.889379 -120.016312 122 5471ft 130kts
10-Mar-19 13:52 34.869249 -119.980398 123 5472ft 131kts
10-Mar-19 13:53 34.848588 -119.943596 124 5472ft 132kts
10-Mar-19 13:54 34.827742 -119.906512 124 5472ft 133kts
10-Mar-19 13:55 34.806636 -119.869008 125 5472ft 133kts
10-Mar-19 13:56 34.785652 -119.831771 125 5472ft 133kts
10-Mar-19 13:57 34.764623 -119.794473 125 5471ft 131kts
10-Mar-19 13:58 34.744210 -119.758303 125 5472ft 128kts
10-Mar-19 13:59 34.725728 -119.725496 125 6046ft 97kts
10-Mar-19 14:00 34.712996 -119.702706 123 6800ft 77kts
10-Mar-19 14:01 34.699782 -119.679289 122 7343ft 91kts
10-Mar-19 14:02 34.683043 -119.649922 122 7491ft 113kts
10-Mar-19 14:03 34.665273 -119.618741 122 7489ft 110kts
10-Mar-19 14:04 34.647975 -119.588278 121 7489ft 108kts
10-Mar-19 14:05 34.631109 -119.558563 121 7489ft 105kts
10-Mar-19 14:06 34.614508 -119.529346 121 7490ft 103kts
10-Mar-19 14:07 34.590060 -119.520142 190 7490ft 105kts
10-Mar-19 14:08 34.566907 -119.508386 125 7486ft 102kts
10-Mar-19 14:09 34.539564 -119.489551 149 7475ft 123kts
10-Mar-19 14:10 34.508634 -119.468801 148 7472ft 128kts
10-Mar-19 14:11 34.477387 -119.447107 148 7472ft 129kts
10-Mar-19 14:12 34.460060 -119.410809 111 7472ft 128kts
10-Mar-19 14:13 34.442294 -119.371389 129 6680ft 136kts
10-Mar-19 14:14 34.416877 -119.337263 132 5685ft 136kts
10-Mar-19 14:15 34.394643 -119.306873 132 5467ft 105kts
10-Mar-19 14:16 34.376046 -119.281322 132 5471ft 98kts
10-Mar-19 14:17 34.357770 -119.256204 132 5377ft 107kts
10-Mar-19 14:18 34.337972 -119.228888 132 4979ft 112kts
10-Mar-19 14:19 34.319714 -119.202921 132 4967ft 92kts
10-Mar-19 14:20 34.305021 -119.181161 132 4866ft 82kts
10-Mar-19 14:21 34.287305 -119.154332 115 3928ft 115kts
10-Mar-19 14:22 34.299625 -119.120590 27 3155ft 114kts
10-Mar-19 14:23 34.324312 -119.097951 60 2179ft 125kts
10-Mar-19 14:24 34.342437 -119.059915 66 678ft 112kts
10-Mar-19 14:25 34.350586 -119.054783 231 453ft 67kts
10-Mar-19 14:26 34.346151 -119.063828 58 248ft 14kts
10-Mar-19 14:28 34.347910 -119.061707 313 248ft 0kts
10-Mar-19 14:29 34.347910 -119.061706 313 248ft 0kts
10-Mar-19 14:30 34.347910 -119.061706 313 248ft 0kts
10-Mar-19 14:31 34.347910 -119.061706 313 248ft 0kts
10-Mar-19 14:32 34.347910 -119.061706 313 248ft 0kts
10-Mar-19 14:33 34.347910 -119.061706 313 248ft 0kts
10-Mar-19 14:34 34.347910 -119.061706 313 248ft 0kts
10-Mar-19 14:35 34.347910 -119.061706 313 248ft 0kts

Navigation Log

Ident Type
Flight plan parsing failed, navigation log unavailable